sensor_id;sensor_type;location;lat;lon;timestamp;P1;durP1;ratioP1;P2;durP2;ratioP2
11665;SDS011;5889;51.350;6.708;2023-03-21T00:02:23;15.63;;;5.43;;
11665;SDS011;5889;51.350;6.708;2023-03-21T00:04:50;13.67;;;5.77;;
11665;SDS011;5889;51.350;6.708;2023-03-21T00:07:17;18.73;;;6.00;;
11665;SDS011;5889;51.350;6.708;2023-03-21T00:09:44;12.97;;;5.83;;
11665;SDS011;5889;51.350;6.708;2023-03-21T00:12:10;17.57;;;6.27;;
11665;SDS011;5889;51.350;6.708;2023-03-21T00:14:38;12.23;;;5.10;;
11665;SDS011;5889;51.350;6.708;2023-03-21T00:17:06;18.87;;;6.03;;
11665;SDS011;5889;51.350;6.708;2023-03-21T00:19:34;18.00;;;5.83;;
11665;SDS011;5889;51.350;6.708;2023-03-21T00:22:02;10.97;;;5.73;;
11665;SDS011;5889;51.350;6.708;2023-03-21T00:24:29;13.90;;;5.90;;
11665;SDS011;5889;51.350;6.708;2023-03-21T00:26:56;10.63;;;5.17;;
11665;SDS011;5889;51.350;6.708;2023-03-21T00:29:23;13.97;;;5.67;;
11665;SDS011;5889;51.350;6.708;2023-03-21T00:31:50;11.10;;;5.30;;
11665;SDS011;5889;51.350;6.708;2023-03-21T00:34:18;11.10;;;5.47;;
11665;SDS011;5889;51.350;6.708;2023-03-21T00:36:44;13.40;;;5.50;;
11665;SDS011;5889;51.350;6.708;2023-03-21T00:39:11;12.67;;;5.43;;
11665;SDS011;5889;51.350;6.708;2023-03-21T00:41:38;12.93;;;5.50;;
11665;SDS011;5889;51.350;6.708;2023-03-21T00:44:05;12.93;;;5.97;;
11665;SDS011;5889;51.350;6.708;2023-03-21T00:46:31;11.70;;;5.13;;
11665;SDS011;5889;51.350;6.708;2023-03-21T00:48:59;12.77;;;5.67;;
11665;SDS011;5889;51.350;6.708;2023-03-21T00:51:27;15.57;;;5.87;;
11665;SDS011;5889;51.350;6.708;2023-03-21T00:53:54;14.10;;;5.67;;
11665;SDS011;5889;51.350;6.708;2023-03-21T00:56:22;14.13;;;5.83;;
11665;SDS011;5889;51.350;6.708;2023-03-21T00:58:49;10.80;;;5.50;;
11665;SDS011;5889;51.350;6.708;2023-03-21T01:01:16;13.70;;;6.33;;
11665;SDS011;5889;51.350;6.708;2023-03-21T01:03:43;12.60;;;5.80;;
11665;SDS011;5889;51.350;6.708;2023-03-21T01:06:15;12.70;;;5.87;;
11665;SDS011;5889;51.350;6.708;2023-03-21T01:08:46;17.60;;;6.13;;
11665;SDS011;5889;51.350;6.708;2023-03-21T01:11:14;10.27;;;5.67;;
11665;SDS011;5889;51.350;6.708;2023-03-21T01:13:43;15.23;;;6.30;;
11665;SDS011;5889;51.350;6.708;2023-03-21T01:16:10;14.77;;;6.30;;
11665;SDS011;5889;51.350;6.708;2023-03-21T01:18:37;16.07;;;6.43;;
11665;SDS011;5889;51.350;6.708;2023-03-21T01:21:06;17.03;;;6.37;;
11665;SDS011;5889;51.350;6.708;2023-03-21T01:23:36;14.43;;;6.47;;
11665;SDS011;5889;51.350;6.708;2023-03-21T01:26:05;17.17;;;6.53;;
11665;SDS011;5889;51.350;6.708;2023-03-21T01:28:33;17.07;;;6.30;;
11665;SDS011;5889;51.350;6.708;2023-03-21T01:31:01;16.83;;;6.80;;
11665;SDS011;5889;51.350;6.708;2023-03-21T01:33:30;13.07;;;6.07;;
11665;SDS011;5889;51.350;6.708;2023-03-21T01:35:57;16.73;;;6.33;;
11665;SDS011;5889;51.350;6.708;2023-03-21T01:38:25;18.07;;;6.80;;
11665;SDS011;5889;51.350;6.708;2023-03-21T01:40:52;17.63;;;6.73;;
11665;SDS011;5889;51.350;6.708;2023-03-21T01:43:21;18.70;;;7.80;;
11665;SDS011;5889;51.350;6.708;2023-03-21T01:46:05;17.40;;;6.80;;
11665;SDS011;5889;51.350;6.708;2023-03-21T01:48:45;15.37;;;7.40;;
11665;SDS011;5889;51.350;6.708;2023-03-21T01:51:16;17.50;;;7.87;;
11665;SDS011;5889;51.350;6.708;2023-03-21T01:53:45;21.47;;;8.27;;
11665;SDS011;5889;51.350;6.708;2023-03-21T01:56:13;14.27;;;7.00;;
11665;SDS011;5889;51.350;6.708;2023-03-21T01:58:44;18.43;;;7.60;;
11665;SDS011;5889;51.350;6.708;2023-03-21T02:01:12;19.00;;;7.90;;
11665;SDS011;5889;51.350;6.708;2023-03-21T02:03:40;16.17;;;7.00;;
11665;SDS011;5889;51.350;6.708;2023-03-21T02:06:15;16.73;;;7.77;;
11665;SDS011;5889;51.350;6.708;2023-03-21T02:08:56;16.07;;;7.30;;
11665;SDS011;5889;51.350;6.708;2023-03-21T02:11:25;18.13;;;7.87;;
11665;SDS011;5889;51.350;6.708;2023-03-21T02:13:55;17.10;;;7.63;;
11665;SDS011;5889;51.350;6.708;2023-03-21T02:16:24;17.83;;;7.90;;
11665;SDS011;5889;51.350;6.708;2023-03-21T02:18:59;17.40;;;7.67;;
11665;SDS011;5889;51.350;6.708;2023-03-21T02:27:48;18.37;;;7.40;;
11665;SDS011;5889;51.350;6.708;2023-03-21T02:30:34;17.63;;;7.40;;
11665;SDS011;5889;51.350;6.708;2023-03-21T02:33:16;13.83;;;7.10;;
11665;SDS011;5889;51.350;6.708;2023-03-21T02:36:00;18.17;;;6.97;;
11665;SDS011;5889;51.350;6.708;2023-03-21T02:38:43;14.73;;;7.53;;
11665;SDS011;5889;51.350;6.708;2023-03-21T02:41:16;16.00;;;7.10;;
11665;SDS011;5889;51.350;6.708;2023-03-21T02:43:48;16.83;;;7.87;;
11665;SDS011;5889;51.350;6.708;2023-03-21T02:46:21;13.20;;;7.17;;
11665;SDS011;5889;51.350;6.708;2023-03-21T02:48:59;16.90;;;7.93;;
11665;SDS011;5889;51.350;6.708;2023-03-21T02:51:32;15.07;;;7.30;;
11665;SDS011;5889;51.350;6.708;2023-03-21T02:54:02;15.30;;;8.37;;
11665;SDS011;5889;51.350;6.708;2023-03-21T02:56:32;16.53;;;7.97;;
11665;SDS011;5889;51.350;6.708;2023-03-21T02:59:01;18.17;;;7.93;;
11665;SDS011;5889;51.350;6.708;2023-03-21T03:01:29;17.13;;;8.00;;
11665;SDS011;5889;51.350;6.708;2023-03-21T03:03:56;17.60;;;7.60;;
11665;SDS011;5889;51.350;6.708;2023-03-21T03:06:23;14.60;;;8.23;;
11665;SDS011;5889;51.350;6.708;2023-03-21T03:08:55;18.33;;;7.67;;
11665;SDS011;5889;51.350;6.708;2023-03-21T03:11:37;22.77;;;8.80;;
11665;SDS011;5889;51.350;6.708;2023-03-21T03:14:13;22.53;;;8.77;;
11665;SDS011;5889;51.350;6.708;2023-03-21T03:16:54;20.60;;;8.60;;
11665;SDS011;5889;51.350;6.708;2023-03-21T03:19:29;18.20;;;7.80;;
11665;SDS011;5889;51.350;6.708;2023-03-21T03:22:00;17.73;;;7.93;;
11665;SDS011;5889;51.350;6.708;2023-03-21T03:24:33;18.53;;;7.73;;
11665;SDS011;5889;51.350;6.708;2023-03-21T03:27:05;13.80;;;7.17;;
11665;SDS011;5889;51.350;6.708;2023-03-21T03:29:36;17.97;;;7.50;;
11665;SDS011;5889;51.350;6.708;2023-03-21T03:32:06;20.63;;;8.03;;
11665;SDS011;5889;51.350;6.708;2023-03-21T03:34:38;15.80;;;7.67;;
11665;SDS011;5889;51.350;6.708;2023-03-21T03:37:10;16.63;;;8.03;;
11665;SDS011;5889;51.350;6.708;2023-03-21T03:39:43;16.10;;;7.37;;
11665;SDS011;5889;51.350;6.708;2023-03-21T03:42:13;13.10;;;7.30;;
11665;SDS011;5889;51.350;6.708;2023-03-21T03:44:42;18.03;;;7.83;;
11665;SDS011;5889;51.350;6.708;2023-03-21T03:47:10;14.07;;;7.30;;
11665;SDS011;5889;51.350;6.708;2023-03-21T03:49:41;13.97;;;7.50;;
11665;SDS011;5889;51.350;6.708;2023-03-21T03:52:15;15.27;;;7.40;;
11665;SDS011;5889;51.350;6.708;2023-03-21T03:54:47;18.87;;;8.40;;
11665;SDS011;5889;51.350;6.708;2023-03-21T03:57:16;20.53;;;8.00;;
11665;SDS011;5889;51.350;6.708;2023-03-21T03:59:44;17.53;;;7.40;;
11665;SDS011;5889;51.350;6.708;2023-03-21T04:02:11;18.03;;;8.57;;
11665;SDS011;5889;51.350;6.708;2023-03-21T04:04:38;20.67;;;7.67;;
11665;SDS011;5889;51.350;6.708;2023-03-21T04:07:05;16.80;;;8.17;;
11665;SDS011;5889;51.350;6.708;2023-03-21T04:09:33;23.57;;;8.20;;
11665;SDS011;5889;51.350;6.708;2023-03-21T04:12:01;18.33;;;8.00;;
11665;SDS011;5889;51.350;6.708;2023-03-21T04:14:28;24.97;;;8.30;;
11665;SDS011;5889;51.350;6.708;2023-03-21T04:16:55;19.67;;;7.97;;
11665;SDS011;5889;51.350;6.708;2023-03-21T04:19:21;16.83;;;8.23;;
11665;SDS011;5889;51.350;6.708;2023-03-21T04:21:48;16.10;;;8.47;;
11665;SDS011;5889;51.350;6.708;2023-03-21T04:24:15;14.97;;;8.10;;
11665;SDS011;5889;51.350;6.708;2023-03-21T04:26:42;16.10;;;7.83;;
11665;SDS011;5889;51.350;6.708;2023-03-21T04:29:10;17.63;;;8.37;;
11665;SDS011;5889;51.350;6.708;2023-03-21T04:31:36;16.97;;;7.67;;
11665;SDS011;5889;51.350;6.708;2023-03-21T04:34:05;16.47;;;8.10;;
11665;SDS011;5889;51.350;6.708;2023-03-21T04:36:36;18.97;;;8.73;;
11665;SDS011;5889;51.350;6.708;2023-03-21T04:39:07;13.23;;;7.20;;
11665;SDS011;5889;51.350;6.708;2023-03-21T04:41:36;19.40;;;7.80;;
11665;SDS011;5889;51.350;6.708;2023-03-21T04:44:03;16.73;;;7.23;;
11665;SDS011;5889;51.350;6.708;2023-03-21T04:46:32;18.90;;;8.03;;
11665;SDS011;5889;51.350;6.708;2023-03-21T04:48:59;13.77;;;7.20;;
11665;SDS011;5889;51.350;6.708;2023-03-21T04:51:26;14.83;;;7.37;;
11665;SDS011;5889;51.350;6.708;2023-03-21T04:53:53;21.23;;;8.17;;
11665;SDS011;5889;51.350;6.708;2023-03-21T04:56:21;23.07;;;8.20;;
11665;SDS011;5889;51.350;6.708;2023-03-21T04:58:54;15.97;;;7.80;;
11665;SDS011;5889;51.350;6.708;2023-03-21T05:01:21;16.10;;;7.17;;
11665;SDS011;5889;51.350;6.708;2023-03-21T05:03:51;17.93;;;8.73;;
11665;SDS011;5889;51.350;6.708;2023-03-21T05:06:17;18.23;;;7.90;;
11665;SDS011;5889;51.350;6.708;2023-03-21T05:08:44;14.87;;;7.50;;
11665;SDS011;5889;51.350;6.708;2023-03-21T05:11:11;17.47;;;7.97;;
11665;SDS011;5889;51.350;6.708;2023-03-21T05:13:38;17.63;;;8.23;;
11665;SDS011;5889;51.350;6.708;2023-03-21T05:16:06;15.93;;;8.13;;
11665;SDS011;5889;51.350;6.708;2023-03-21T05:18:33;19.30;;;8.10;;
11665;SDS011;5889;51.350;6.708;2023-03-21T05:21:04;15.13;;;7.53;;
11665;SDS011;5889;51.350;6.708;2023-03-21T05:23:34;16.53;;;7.40;;
11665;SDS011;5889;51.350;6.708;2023-03-21T05:26:02;18.20;;;7.40;;
11665;SDS011;5889;51.350;6.708;2023-03-21T05:28:30;13.83;;;7.13;;
11665;SDS011;5889;51.350;6.708;2023-03-21T05:31:00;18.83;;;7.03;;
11665;SDS011;5889;51.350;6.708;2023-03-21T05:33:27;13.40;;;7.27;;
11665;SDS011;5889;51.350;6.708;2023-03-21T05:35:54;19.57;;;8.43;;
11665;SDS011;5889;51.350;6.708;2023-03-21T05:38:22;14.83;;;7.53;;
11665;SDS011;5889;51.350;6.708;2023-03-21T05:40:50;17.00;;;7.87;;
11665;SDS011;5889;51.350;6.708;2023-03-21T05:43:18;15.03;;;7.00;;
11665;SDS011;5889;51.350;6.708;2023-03-21T05:45:45;23.17;;;8.27;;
11665;SDS011;5889;51.350;6.708;2023-03-21T05:48:12;14.53;;;7.67;;
11665;SDS011;5889;51.350;6.708;2023-03-21T05:50:39;20.80;;;7.93;;
11665;SDS011;5889;51.350;6.708;2023-03-21T05:53:06;17.30;;;8.20;;
11665;SDS011;5889;51.350;6.708;2023-03-21T05:55:34;22.37;;;8.17;;
11665;SDS011;5889;51.350;6.708;2023-03-21T05:58:01;17.43;;;7.80;;
11665;SDS011;5889;51.350;6.708;2023-03-21T06:00:28;13.80;;;7.67;;
11665;SDS011;5889;51.350;6.708;2023-03-21T06:02:55;16.30;;;7.80;;
11665;SDS011;5889;51.350;6.708;2023-03-21T06:05:22;15.83;;;7.80;;
11665;SDS011;5889;51.350;6.708;2023-03-21T06:07:49;15.53;;;7.53;;
11665;SDS011;5889;51.350;6.708;2023-03-21T06:10:16;24.10;;;7.47;;
11665;SDS011;5889;51.350;6.708;2023-03-21T06:12:44;15.53;;;7.77;;
11665;SDS011;5889;51.350;6.708;2023-03-21T06:15:10;18.20;;;7.67;;
11665;SDS011;5889;51.350;6.708;2023-03-21T06:17:37;15.40;;;6.90;;
11665;SDS011;5889;51.350;6.708;2023-03-21T06:20:05;20.63;;;8.17;;
11665;SDS011;5889;51.350;6.708;2023-03-21T06:22:33;19.47;;;8.90;;
11665;SDS011;5889;51.350;6.708;2023-03-21T06:25:01;13.53;;;6.47;;
11665;SDS011;5889;51.350;6.708;2023-03-21T06:27:28;16.50;;;7.33;;
11665;SDS011;5889;51.350;6.708;2023-03-21T06:29:56;13.90;;;7.40;;
11665;SDS011;5889;51.350;6.708;2023-03-21T06:32:23;16.23;;;6.63;;
11665;SDS011;5889;51.350;6.708;2023-03-21T06:34:50;12.30;;;7.17;;
11665;SDS011;5889;51.350;6.708;2023-03-21T06:37:17;15.30;;;7.63;;
11665;SDS011;5889;51.350;6.708;2023-03-21T06:39:44;16.57;;;8.13;;
11665;SDS011;5889;51.350;6.708;2023-03-21T06:42:11;17.40;;;8.20;;
11665;SDS011;5889;51.350;6.708;2023-03-21T06:44:38;16.50;;;8.03;;
11665;SDS011;5889;51.350;6.708;2023-03-21T06:47:07;21.90;;;8.53;;
11665;SDS011;5889;51.350;6.708;2023-03-21T06:49:34;15.67;;;7.60;;
11665;SDS011;5889;51.350;6.708;2023-03-21T06:52:00;23.87;;;8.57;;
11665;SDS011;5889;51.350;6.708;2023-03-21T06:54:27;17.77;;;7.57;;
11665;SDS011;5889;51.350;6.708;2023-03-21T06:56:54;18.60;;;7.70;;
11665;SDS011;5889;51.350;6.708;2023-03-21T06:59:21;17.77;;;7.60;;
11665;SDS011;5889;51.350;6.708;2023-03-21T07:01:48;15.07;;;7.03;;
11665;SDS011;5889;51.350;6.708;2023-03-21T07:04:16;18.57;;;7.83;;
11665;SDS011;5889;51.350;6.708;2023-03-21T07:06:43;18.93;;;7.67;;
11665;SDS011;5889;51.350;6.708;2023-03-21T07:09:09;17.03;;;7.77;;
11665;SDS011;5889;51.350;6.708;2023-03-21T07:11:36;18.27;;;8.13;;
11665;SDS011;5889;51.350;6.708;2023-03-21T07:14:03;16.83;;;7.20;;
11665;SDS011;5889;51.350;6.708;2023-03-21T07:16:30;18.63;;;7.57;;
11665;SDS011;5889;51.350;6.708;2023-03-21T07:18:57;16.40;;;6.13;;
11665;SDS011;5889;51.350;6.708;2023-03-21T07:21:26;13.90;;;6.83;;
11665;SDS011;5889;51.350;6.708;2023-03-21T07:23:52;20.47;;;7.33;;
11665;SDS011;5889;51.350;6.708;2023-03-21T07:26:19;12.17;;;7.27;;
11665;SDS011;5889;51.350;6.708;2023-03-21T07:28:46;14.07;;;6.67;;
11665;SDS011;5889;51.350;6.708;2023-03-21T07:31:13;16.37;;;8.03;;
11665;SDS011;5889;51.350;6.708;2023-03-21T07:33:43;20.27;;;7.80;;
11665;SDS011;5889;51.350;6.708;2023-03-21T07:36:11;17.53;;;7.07;;
11665;SDS011;5889;51.350;6.708;2023-03-21T07:38:40;15.23;;;6.87;;
11665;SDS011;5889;51.350;6.708;2023-03-21T07:41:07;15.57;;;6.57;;
11665;SDS011;5889;51.350;6.708;2023-03-21T07:43:34;14.67;;;6.90;;
11665;SDS011;5889;51.350;6.708;2023-03-21T07:46:01;16.50;;;6.57;;
11665;SDS011;5889;51.350;6.708;2023-03-21T07:48:28;12.70;;;6.57;;
11665;SDS011;5889;51.350;6.708;2023-03-21T07:50:55;15.93;;;6.57;;
11665;SDS011;5889;51.350;6.708;2023-03-21T07:53:22;14.73;;;5.87;;
11665;SDS011;5889;51.350;6.708;2023-03-21T07:55:50;15.53;;;7.10;;
11665;SDS011;5889;51.350;6.708;2023-03-21T07:58:19;15.83;;;6.20;;
11665;SDS011;5889;51.350;6.708;2023-03-21T08:00:46;16.97;;;6.90;;
11665;SDS011;5889;51.350;6.708;2023-03-21T08:03:13;13.93;;;6.40;;
11665;SDS011;5889;51.350;6.708;2023-03-21T08:05:40;12.03;;;5.90;;
11665;SDS011;5889;51.350;6.708;2023-03-21T08:08:08;13.33;;;5.87;;
11665;SDS011;5889;51.350;6.708;2023-03-21T08:10:35;15.87;;;6.23;;
11665;SDS011;5889;51.350;6.708;2023-03-21T08:13:03;11.90;;;5.80;;
11665;SDS011;5889;51.350;6.708;2023-03-21T08:15:30;16.70;;;6.40;;
11665;SDS011;5889;51.350;6.708;2023-03-21T08:17:57;13.43;;;6.20;;
11665;SDS011;5889;51.350;6.708;2023-03-21T08:20:24;13.93;;;6.50;;
11665;SDS011;5889;51.350;6.708;2023-03-21T08:22:51;14.00;;;6.53;;
11665;SDS011;5889;51.350;6.708;2023-03-21T08:25:18;15.87;;;6.93;;
11665;SDS011;5889;51.350;6.708;2023-03-21T08:27:46;17.27;;;7.00;;
11665;SDS011;5889;51.350;6.708;2023-03-21T08:30:16;15.40;;;6.87;;
11665;SDS011;5889;51.350;6.708;2023-03-21T08:32:44;18.87;;;7.13;;
11665;SDS011;5889;51.350;6.708;2023-03-21T08:35:12;20.60;;;7.10;;
11665;SDS011;5889;51.350;6.708;2023-03-21T08:37:41;14.80;;;7.23;;
11665;SDS011;5889;51.350;6.708;2023-03-21T08:40:09;14.23;;;7.53;;
11665;SDS011;5889;51.350;6.708;2023-03-21T08:42:38;13.90;;;6.90;;
11665;SDS011;5889;51.350;6.708;2023-03-21T08:45:06;19.63;;;7.50;;
11665;SDS011;5889;51.350;6.708;2023-03-21T08:47:35;16.03;;;7.83;;
11665;SDS011;5889;51.350;6.708;2023-03-21T08:50:02;14.37;;;8.03;;
11665;SDS011;5889;51.350;6.708;2023-03-21T08:52:31;18.53;;;8.67;;
11665;SDS011;5889;51.350;6.708;2023-03-21T08:54:58;13.60;;;7.10;;
11665;SDS011;5889;51.350;6.708;2023-03-21T08:57:26;15.83;;;7.50;;
11665;SDS011;5889;51.350;6.708;2023-03-21T08:59:53;13.13;;;7.60;;
11665;SDS011;5889;51.350;6.708;2023-03-21T09:02:19;14.10;;;7.43;;
11665;SDS011;5889;51.350;6.708;2023-03-21T09:04:47;14.33;;;7.30;;
11665;SDS011;5889;51.350;6.708;2023-03-21T09:07:17;12.70;;;7.40;;
11665;SDS011;5889;51.350;6.708;2023-03-21T09:09:44;17.50;;;7.67;;
11665;SDS011;5889;51.350;6.708;2023-03-21T09:12:11;16.13;;;7.80;;
11665;SDS011;5889;51.350;6.708;2023-03-21T09:14:37;15.53;;;8.03;;
11665;SDS011;5889;51.350;6.708;2023-03-21T09:17:05;18.43;;;8.00;;
11665;SDS011;5889;51.350;6.708;2023-03-21T09:19:31;19.53;;;7.87;;
11665;SDS011;5889;51.350;6.708;2023-03-21T09:22:00;13.83;;;7.30;;
11665;SDS011;5889;51.350;6.708;2023-03-21T09:24:29;18.00;;;7.80;;
11665;SDS011;5889;51.350;6.708;2023-03-21T09:26:55;19.17;;;8.87;;
11665;SDS011;5889;51.350;6.708;2023-03-21T09:29:22;17.47;;;9.07;;
11665;SDS011;5889;51.350;6.708;2023-03-21T09:31:49;24.73;;;9.07;;
11665;SDS011;5889;51.350;6.708;2023-03-21T09:34:17;21.77;;;9.13;;
11665;SDS011;5889;51.350;6.708;2023-03-21T09:36:44;11.93;;;6.23;;
11665;SDS011;5889;51.350;6.708;2023-03-21T09:39:14;18.97;;;8.43;;
11665;SDS011;5889;51.350;6.708;2023-03-21T09:44:52;23.17;;;9.20;;
11665;SDS011;5889;51.350;6.708;2023-03-21T09:47:30;18.40;;;8.67;;
11665;SDS011;5889;51.350;6.708;2023-03-21T09:50:10;19.27;;;9.27;;
11665;SDS011;5889;51.350;6.708;2023-03-21T09:52:44;19.53;;;9.33;;
11665;SDS011;5889;51.350;6.708;2023-03-21T09:55:17;19.17;;;9.67;;
11665;SDS011;5889;51.350;6.708;2023-03-21T09:57:46;20.17;;;9.80;;
11665;SDS011;5889;51.350;6.708;2023-03-21T10:00:19;17.83;;;7.40;;
11665;SDS011;5889;51.350;6.708;2023-03-21T10:02:53;16.17;;;9.03;;
11665;SDS011;5889;51.350;6.708;2023-03-21T10:05:24;18.40;;;8.63;;
11665;SDS011;5889;51.350;6.708;2023-03-21T10:07:55;15.47;;;8.20;;
11665;SDS011;5889;51.350;6.708;2023-03-21T10:10:30;18.83;;;8.20;;
11665;SDS011;5889;51.350;6.708;2023-03-21T10:13:00;17.33;;;8.63;;
11665;SDS011;5889;51.350;6.708;2023-03-21T10:15:26;17.07;;;7.83;;
11665;SDS011;5889;51.350;6.708;2023-03-21T10:17:54;17.10;;;8.10;;
11665;SDS011;5889;51.350;6.708;2023-03-21T10:20:25;15.07;;;6.83;;
11665;SDS011;5889;51.350;6.708;2023-03-21T10:22:54;14.27;;;8.07;;
11665;SDS011;5889;51.350;6.708;2023-03-21T10:25:25;15.00;;;7.90;;
11665;SDS011;5889;51.350;6.708;2023-03-21T10:27:59;18.00;;;7.43;;
11665;SDS011;5889;51.350;6.708;2023-03-21T10:30:29;21.87;;;8.10;;
11665;SDS011;5889;51.350;6.708;2023-03-21T10:33:02;13.43;;;6.67;;
11665;SDS011;5889;51.350;6.708;2023-03-21T10:35:33;20.70;;;8.40;;
11665;SDS011;5889;51.350;6.708;2023-03-21T10:38:04;17.30;;;7.97;;
11665;SDS011;5889;51.350;6.708;2023-03-21T10:40:33;19.47;;;8.40;;
11665;SDS011;5889;51.350;6.708;2023-03-21T10:43:16;13.80;;;7.30;;
11665;SDS011;5889;51.350;6.708;2023-03-21T10:45:46;11.27;;;6.13;;
11665;SDS011;5889;51.350;6.708;2023-03-21T10:48:13;13.13;;;6.73;;
11665;SDS011;5889;51.350;6.708;2023-03-21T10:50:40;12.70;;;7.13;;
11665;SDS011;5889;51.350;6.708;2023-03-21T10:53:13;10.07;;;6.03;;
11665;SDS011;5889;51.350;6.708;2023-03-21T10:55:45;13.13;;;6.57;;
11665;SDS011;5889;51.350;6.708;2023-03-21T10:58:15;13.50;;;6.87;;
11665;SDS011;5889;51.350;6.708;2023-03-21T11:00:51;14.63;;;6.80;;
11665;SDS011;5889;51.350;6.708;2023-03-21T11:03:20;13.33;;;6.17;;
11665;SDS011;5889;51.350;6.708;2023-03-21T11:05:52;14.57;;;6.80;;
11665;SDS011;5889;51.350;6.708;2023-03-21T11:08:20;13.27;;;6.07;;
11665;SDS011;5889;51.350;6.708;2023-03-21T11:10:49;11.47;;;5.43;;
11665;SDS011;5889;51.350;6.708;2023-03-21T11:13:24;15.37;;;5.93;;
11665;SDS011;5889;51.350;6.708;2023-03-21T11:15:53;8.60;;;5.20;;
11665;SDS011;5889;51.350;6.708;2023-03-21T11:18:23;7.77;;;4.83;;
11665;SDS011;5889;51.350;6.708;2023-03-21T11:20:51;12.30;;;6.03;;
11665;SDS011;5889;51.350;6.708;2023-03-21T11:23:20;13.63;;;5.80;;
11665;SDS011;5889;51.350;6.708;2023-03-21T11:25:51;14.80;;;6.27;;
11665;SDS011;5889;51.350;6.708;2023-03-21T11:28:18;15.17;;;5.70;;
11665;SDS011;5889;51.350;6.708;2023-03-21T11:30:49;9.97;;;4.80;;
11665;SDS011;5889;51.350;6.708;2023-03-21T11:33:18;12.17;;;6.60;;
11665;SDS011;5889;51.350;6.708;2023-03-21T11:35:57;11.67;;;6.20;;
11665;SDS011;5889;51.350;6.708;2023-03-21T11:38:29;11.53;;;5.70;;
11665;SDS011;5889;51.350;6.708;2023-03-21T11:40:58;9.87;;;6.43;;
11665;SDS011;5889;51.350;6.708;2023-03-21T11:43:27;9.37;;;5.90;;
11665;SDS011;5889;51.350;6.708;2023-03-21T11:45:57;13.33;;;6.30;;
11665;SDS011;5889;51.350;6.708;2023-03-21T11:48:25;11.00;;;6.47;;
11665;SDS011;5889;51.350;6.708;2023-03-21T11:50:55;8.73;;;4.43;;
11665;SDS011;5889;51.350;6.708;2023-03-21T11:53:30;8.97;;;5.93;;
11665;SDS011;5889;51.350;6.708;2023-03-21T12:01:53;14.10;;;6.77;;
11665;SDS011;5889;51.350;6.708;2023-03-21T12:04:37;10.67;;;6.10;;
11665;SDS011;5889;51.350;6.708;2023-03-21T12:07:10;8.93;;;5.30;;
11665;SDS011;5889;51.350;6.708;2023-03-21T12:10:01;8.70;;;4.87;;
11665;SDS011;5889;51.350;6.708;2023-03-21T12:12:48;10.80;;;6.00;;
11665;SDS011;5889;51.350;6.708;2023-03-21T12:15:22;12.10;;;5.67;;
11665;SDS011;5889;51.350;6.708;2023-03-21T12:17:57;11.87;;;6.03;;
11665;SDS011;5889;51.350;6.708;2023-03-21T12:20:34;13.43;;;6.57;;
11665;SDS011;5889;51.350;6.708;2023-03-21T12:23:09;10.67;;;6.60;;
11665;SDS011;5889;51.350;6.708;2023-03-21T12:25:53;17.60;;;7.17;;
11665;SDS011;5889;51.350;6.708;2023-03-21T12:28:29;13.23;;;6.67;;
11665;SDS011;5889;51.350;6.708;2023-03-21T12:31:06;11.57;;;6.80;;
11665;SDS011;5889;51.350;6.708;2023-03-21T12:33:43;12.17;;;6.20;;
11665;SDS011;5889;51.350;6.708;2023-03-21T12:36:25;10.83;;;5.87;;
11665;SDS011;5889;51.350;6.708;2023-03-21T12:39:03;13.17;;;7.03;;
11665;SDS011;5889;51.350;6.708;2023-03-21T12:41:40;11.00;;;6.13;;
11665;SDS011;5889;51.350;6.708;2023-03-21T12:44:10;11.63;;;6.57;;
11665;SDS011;5889;51.350;6.708;2023-03-21T12:46:41;14.10;;;6.57;;
11665;SDS011;5889;51.350;6.708;2023-03-21T12:49:14;12.27;;;6.43;;
11665;SDS011;5889;51.350;6.708;2023-03-21T12:51:45;12.37;;;6.00;;
11665;SDS011;5889;51.350;6.708;2023-03-21T12:54:16;11.53;;;6.67;;
11665;SDS011;5889;51.350;6.708;2023-03-21T12:56:49;12.13;;;6.13;;
11665;SDS011;5889;51.350;6.708;2023-03-21T12:59:21;12.93;;;6.37;;
11665;SDS011;5889;51.350;6.708;2023-03-21T13:01:55;11.87;;;5.63;;
11665;SDS011;5889;51.350;6.708;2023-03-21T13:04:39;11.87;;;6.30;;
11665;SDS011;5889;51.350;6.708;2023-03-21T13:07:11;13.50;;;6.10;;
11665;SDS011;5889;51.350;6.708;2023-03-21T13:09:44;10.20;;;5.87;;
11665;SDS011;5889;51.350;6.708;2023-03-21T13:12:15;14.90;;;5.67;;
11665;SDS011;5889;51.350;6.708;2023-03-21T13:14:54;9.63;;;6.17;;
11665;SDS011;5889;51.350;6.708;2023-03-21T13:17:29;9.10;;;5.27;;
11665;SDS011;5889;51.350;6.708;2023-03-21T13:20:06;9.27;;;5.70;;
11665;SDS011;5889;51.350;6.708;2023-03-21T13:22:40;8.80;;;5.07;;
11665;SDS011;5889;51.350;6.708;2023-03-21T13:25:14;8.47;;;5.33;;
11665;SDS011;5889;51.350;6.708;2023-03-21T13:27:49;8.00;;;5.00;;
11665;SDS011;5889;51.350;6.708;2023-03-21T13:30:18;8.97;;;5.50;;
11665;SDS011;5889;51.350;6.708;2023-03-21T13:32:47;10.73;;;5.27;;
11665;SDS011;5889;51.350;6.708;2023-03-21T13:35:17;9.30;;;5.73;;
11665;SDS011;5889;51.350;6.708;2023-03-21T13:37:51;12.27;;;5.63;;
11665;SDS011;5889;51.350;6.708;2023-03-21T13:40:22;17.63;;;5.47;;
11665;SDS011;5889;51.350;6.708;2023-03-21T13:42:52;6.13;;;4.60;;
11665;SDS011;5889;51.350;6.708;2023-03-21T13:45:25;9.20;;;5.10;;
11665;SDS011;5889;51.350;6.708;2023-03-21T13:47:54;9.43;;;5.57;;
11665;SDS011;5889;51.350;6.708;2023-03-21T13:50:33;9.23;;;4.90;;
11665;SDS011;5889;51.350;6.708;2023-03-21T13:53:21;9.20;;;4.73;;
11665;SDS011;5889;51.350;6.708;2023-03-21T13:58:53;8.53;;;5.37;;
11665;SDS011;5889;51.350;6.708;2023-03-21T14:01:34;7.73;;;5.00;;
11665;SDS011;5889;51.350;6.708;2023-03-21T14:04:09;10.00;;;4.70;;
11665;SDS011;5889;51.350;6.708;2023-03-21T14:06:42;9.20;;;4.80;;
11665;SDS011;5889;51.350;6.708;2023-03-21T14:09:14;9.53;;;5.50;;
11665;SDS011;5889;51.350;6.708;2023-03-21T14:11:46;7.53;;;4.50;;
11665;SDS011;5889;51.350;6.708;2023-03-21T14:14:16;8.00;;;4.53;;
11665;SDS011;5889;51.350;6.708;2023-03-21T14:16:44;7.63;;;5.33;;
11665;SDS011;5889;51.350;6.708;2023-03-21T14:19:11;7.90;;;4.93;;
11665;SDS011;5889;51.350;6.708;2023-03-21T14:21:44;9.97;;;5.67;;
11665;SDS011;5889;51.350;6.708;2023-03-21T14:24:17;7.10;;;4.60;;
11665;SDS011;5889;51.350;6.708;2023-03-21T14:26:46;9.93;;;5.23;;
11665;SDS011;5889;51.350;6.708;2023-03-21T14:29:16;7.47;;;5.20;;
11665;SDS011;5889;51.350;6.708;2023-03-21T14:31:48;8.90;;;5.40;;
11665;SDS011;5889;51.350;6.708;2023-03-21T14:34:15;9.40;;;4.60;;
11665;SDS011;5889;51.350;6.708;2023-03-21T14:36:43;9.90;;;5.57;;
11665;SDS011;5889;51.350;6.708;2023-03-21T14:39:16;6.57;;;4.90;;
11665;SDS011;5889;51.350;6.708;2023-03-21T14:41:46;9.33;;;5.20;;
11665;SDS011;5889;51.350;6.708;2023-03-21T14:44:16;7.30;;;4.83;;
11665;SDS011;5889;51.350;6.708;2023-03-21T14:46:50;8.60;;;4.80;;
11665;SDS011;5889;51.350;6.708;2023-03-21T14:49:19;10.47;;;5.10;;
11665;SDS011;5889;51.350;6.708;2023-03-21T14:51:50;10.27;;;4.47;;
11665;SDS011;5889;51.350;6.708;2023-03-21T14:54:20;12.10;;;4.87;;
11665;SDS011;5889;51.350;6.708;2023-03-21T14:56:49;6.17;;;4.53;;
11665;SDS011;5889;51.350;6.708;2023-03-21T14:59:18;9.07;;;4.30;;
11665;SDS011;5889;51.350;6.708;2023-03-21T15:01:48;9.60;;;4.53;;
11665;SDS011;5889;51.350;6.708;2023-03-21T15:04:17;6.07;;;4.73;;
11665;SDS011;5889;51.350;6.708;2023-03-21T15:06:49;7.47;;;4.53;;
11665;SDS011;5889;51.350;6.708;2023-03-21T15:09:18;5.93;;;3.47;;
11665;SDS011;5889;51.350;6.708;2023-03-21T15:11:49;7.40;;;4.67;;
11665;SDS011;5889;51.350;6.708;2023-03-21T15:14:17;11.20;;;4.93;;
11665;SDS011;5889;51.350;6.708;2023-03-21T15:16:47;6.87;;;4.43;;
11665;SDS011;5889;51.350;6.708;2023-03-21T15:19:15;6.50;;;4.20;;
11665;SDS011;5889;51.350;6.708;2023-03-21T15:21:44;8.70;;;4.47;;
11665;SDS011;5889;51.350;6.708;2023-03-21T15:24:17;10.43;;;5.13;;
11665;SDS011;5889;51.350;6.708;2023-03-21T15:26:58;7.07;;;4.77;;